sensor_id;sensor_type;location;lat;lon;timestamp;temperature;humidity
80192;SHT31;69513;51.990;5.704;2023-06-24T04:33:50;22.2;53.8
80192;SHT31;69513;51.990;5.704;2023-06-24T04:36:20;22.0;54.2
80192;SHT31;69513;51.990;5.704;2023-06-24T04:38:51;21.9;54.6
80192;SHT31;69513;51.990;5.704;2023-06-24T04:41:20;21.7;54.9
80192;SHT31;69513;51.990;5.704;2023-06-24T04:43:50;21.5;54.5
80192;SHT31;69513;51.990;5.704;2023-06-24T04:46:19;21.4;55.6
80192;SHT31;69513;51.990;5.704;2023-06-24T04:48:50;21.3;56.0
80192;SHT31;69513;51.990;5.704;2023-06-24T04:51:19;21.1;56.9
80192;SHT31;69513;51.990;5.704;2023-06-24T04:53:49;21.0;58.2
80192;SHT31;69513;51.990;5.704;2023-06-24T04:56:20;20.9;59.5
80192;SHT31;69513;51.990;5.704;2023-06-24T04:58:51;20.8;59.7
80192;SHT31;69513;51.990;5.704;2023-06-24T05:01:22;20.8;59.5
80192;SHT31;69513;51.990;5.704;2023-06-24T05:03:52;20.7;59.8
80192;SHT31;69513;51.990;5.704;2023-06-24T05:06:22;20.6;60.5
80192;SHT31;69513;51.990;5.704;2023-06-24T05:08:53;20.6;60.5
80192;SHT31;69513;51.990;5.704;2023-06-24T05:11:22;20.5;61.4
80192;SHT31;69513;51.990;5.704;2023-06-24T05:13:52;20.5;61.5
80192;SHT31;69513;51.990;5.704;2023-06-24T05:16:22;20.4;61.3
80192;SHT31;69513;51.990;5.704;2023-06-24T05:18:53;20.4;61.6
80192;SHT31;69513;51.990;5.704;2023-06-24T05:21:22;20.4;62.3
80192;SHT31;69513;51.990;5.704;2023-06-24T05:23:52;20.4;62.2
80192;SHT31;69513;51.990;5.704;2023-06-24T05:26:21;20.3;61.9
80192;SHT31;69513;51.990;5.704;2023-06-24T05:28:51;20.3;61.6
80192;SHT31;69513;51.990;5.704;2023-06-24T05:31:21;20.3;61.5
80192;SHT31;69513;51.990;5.704;2023-06-24T05:33:50;20.3;61.2
80192;SHT31;69513;51.990;5.704;2023-06-24T05:36:20;20.3;61.8
80192;SHT31;69513;51.990;5.704;2023-06-24T05:38:49;20.3;61.8
80192;SHT31;69513;51.990;5.704;2023-06-24T05:41:19;20.3;62.2
80192;SHT31;69513;51.990;5.704;2023-06-24T05:43:49;20.3;61.7
80192;SHT31;69513;51.990;5.704;2023-06-24T05:46:19;20.4;61.7
80192;SHT31;69513;51.990;5.704;2023-06-24T05:48:49;20.4;62.3
80192;SHT31;69513;51.990;5.704;2023-06-24T05:51:18;20.4;60.9
80192;SHT31;69513;51.990;5.704;2023-06-24T05:53:48;20.4;62.3
80192;SHT31;69513;51.990;5.704;2023-06-24T05:56:21;20.5;62.3
80192;SHT31;69513;51.990;5.704;2023-06-24T05:58:52;20.5;62.4
80192;SHT31;69513;51.990;5.704;2023-06-24T06:01:23;20.5;61.4
80192;SHT31;69513;51.990;5.704;2023-06-24T06:03:53;20.6;61.8
80192;SHT31;69513;51.990;5.704;2023-06-24T06:06:23;20.6;61.6
80192;SHT31;69513;51.990;5.704;2023-06-24T06:08:52;20.6;61.8
80192;SHT31;69513;51.990;5.704;2023-06-24T06:11:22;20.7;60.9
80192;SHT31;69513;51.990;5.704;2023-06-24T06:13:52;20.7;59.9
80192;SHT31;69513;51.990;5.704;2023-06-24T06:16:24;20.7;60.9
80192;SHT31;69513;51.990;5.704;2023-06-24T06:18:56;20.7;61.0
80192;SHT31;69513;51.990;5.704;2023-06-24T06:21:26;20.8;60.8
80192;SHT31;69513;51.990;5.704;2023-06-24T06:23:55;20.8;61.2
80192;SHT31;69513;51.990;5.704;2023-06-24T06:26:26;20.8;60.5
80192;SHT31;69513;51.990;5.704;2023-06-24T06:28:55;20.9;60.8
80192;SHT31;69513;51.990;5.704;2023-06-24T06:31:27;20.9;61.2
80192;SHT31;69513;51.990;5.704;2023-06-24T06:33:56;21.0;61.1
80192;SHT31;69513;51.990;5.704;2023-06-24T06:36:26;21.0;60.8
80192;SHT31;69513;51.990;5.704;2023-06-24T06:38:55;21.0;59.7
80192;SHT31;69513;51.990;5.704;2023-06-24T06:41:25;21.1;59.9
80192;SHT31;69513;51.990;5.704;2023-06-24T06:43:54;21.1;59.2
80192;SHT31;69513;51.990;5.704;2023-06-24T06:46:27;21.1;59.3
80192;SHT31;69513;51.990;5.704;2023-06-24T06:49:00;21.2;59.4
80192;SHT31;69513;51.990;5.704;2023-06-24T06:51:30;21.2;59.2
80192;SHT31;69513;51.990;5.704;2023-06-24T06:54:01;21.3;58.7
80192;SHT31;69513;51.990;5.704;2023-06-24T06:56:30;21.3;58.7
80192;SHT31;69513;51.990;5.704;2023-06-24T06:59:00;21.4;58.3
80192;SHT31;69513;51.990;5.704;2023-06-24T07:01:30;21.4;56.5
80192;SHT31;69513;51.990;5.704;2023-06-24T07:04:00;21.5;55.8
80192;SHT31;69513;51.990;5.704;2023-06-24T07:06:29;21.5;55.6
80192;SHT31;69513;51.990;5.704;2023-06-24T07:09:00;21.5;56.0
80192;SHT31;69513;51.990;5.704;2023-06-24T07:11:29;21.6;56.3
80192;SHT31;69513;51.990;5.704;2023-06-24T07:13:59;21.6;56.7
80192;SHT31;69513;51.990;5.704;2023-06-24T07:16:28;21.7;56.8
80192;SHT31;69513;51.990;5.704;2023-06-24T07:18:58;21.7;56.7
80192;SHT31;69513;51.990;5.704;2023-06-24T07:21:27;21.7;56.5
80192;SHT31;69513;51.990;5.704;2023-06-24T07:23:57;21.8;55.3
80192;SHT31;69513;51.990;5.704;2023-06-24T07:26:26;21.8;55.0
80192;SHT31;69513;51.990;5.704;2023-06-24T07:28:59;21.9;54.2
80192;SHT31;69513;51.990;5.704;2023-06-24T07:31:29;21.9;52.7
80192;SHT31;69513;51.990;5.704;2023-06-24T07:33:58;22.0;52.4
80192;SHT31;69513;51.990;5.704;2023-06-24T07:36:27;22.0;51.2
80192;SHT31;69513;51.990;5.704;2023-06-24T07:38:57;22.0;51.1
80192;SHT31;69513;51.990;5.704;2023-06-24T07:41:27;22.1;52.1
80192;SHT31;69513;51.990;5.704;2023-06-24T07:43:57;22.1;51.9
80192;SHT31;69513;51.990;5.704;2023-06-24T07:46:28;22.2;52.9
80192;SHT31;69513;51.990;5.704;2023-06-24T07:48:58;22.2;53.0
80192;SHT31;69513;51.990;5.704;2023-06-24T07:51:27;22.3;52.2
80192;SHT31;69513;51.990;5.704;2023-06-24T07:53:57;22.3;51.6
80192;SHT31;69513;51.990;5.704;2023-06-24T07:56:26;22.4;52.5
80192;SHT31;69513;51.990;5.704;2023-06-24T07:58:59;22.4;51.6
80192;SHT31;69513;51.990;5.704;2023-06-24T08:01:30;22.4;50.2
80192;SHT31;69513;51.990;5.704;2023-06-24T08:03:59;22.5;51.0
80192;SHT31;69513;51.990;5.704;2023-06-24T08:06:29;22.5;50.9
80192;SHT31;69513;51.990;5.704;2023-06-24T08:08:59;22.6;50.4
80192;SHT31;69513;51.990;5.704;2023-06-24T08:11:29;22.6;49.8
80192;SHT31;69513;51.990;5.704;2023-06-24T08:13:58;22.7;49.5
80192;SHT31;69513;51.990;5.704;2023-06-24T08:16:32;22.7;49.9
80192;SHT31;69513;51.990;5.704;2023-06-24T08:19:01;22.7;50.8
80192;SHT31;69513;51.990;5.704;2023-06-24T08:21:31;22.8;51.8
80192;SHT31;69513;51.990;5.704;2023-06-24T08:24:03;22.8;51.6
80192;SHT31;69513;51.990;5.704;2023-06-24T08:26:34;22.9;50.6
80192;SHT31;69513;51.990;5.704;2023-06-24T08:29:04;22.9;51.0
80192;SHT31;69513;51.990;5.704;2023-06-24T08:31:37;23.0;50.1
80192;SHT31;69513;51.990;5.704;2023-06-24T08:34:06;23.0;49.9
80192;SHT31;69513;51.990;5.704;2023-06-24T08:36:36;23.0;49.2
80192;SHT31;69513;51.990;5.704;2023-06-24T08:39:08;23.1;49.2
80192;SHT31;69513;51.990;5.704;2023-06-24T08:41:37;23.1;49.7
80192;SHT31;69513;51.990;5.704;2023-06-24T08:44:07;23.2;48.1
80192;SHT31;69513;51.990;5.704;2023-06-24T08:46:37;23.2;48.2
80192;SHT31;69513;51.990;5.704;2023-06-24T08:49:18;23.3;48.7
80192;SHT31;69513;51.990;5.704;2023-06-24T08:51:58;23.3;49.3
80192;SHT31;69513;51.990;5.704;2023-06-24T08:54:30;23.4;49.3
80192;SHT31;69513;51.990;5.704;2023-06-24T08:57:07;23.5;49.5
80192;SHT31;69513;51.990;5.704;2023-06-24T08:59:43;23.5;49.7
80192;SHT31;69513;51.990;5.704;2023-06-24T09:02:12;23.6;49.9
80192;SHT31;69513;51.990;5.704;2023-06-24T09:04:42;23.7;50.3
80192;SHT31;69513;51.990;5.704;2023-06-24T09:07:12;23.8;48.7
80192;SHT31;69513;51.990;5.704;2023-06-24T09:09:45;23.9;49.6
80192;SHT31;69513;51.990;5.704;2023-06-24T09:12:15;23.9;47.9
80192;SHT31;69513;51.990;5.704;2023-06-24T09:14:51;24.0;47.7
80192;SHT31;69513;51.990;5.704;2023-06-24T09:17:21;24.0;48.3
80192;SHT31;69513;51.990;5.704;2023-06-24T09:19:52;24.1;47.7
80192;SHT31;69513;51.990;5.704;2023-06-24T09:22:22;24.1;47.9
80192;SHT31;69513;51.990;5.704;2023-06-24T09:24:54;24.2;47.6
80192;SHT31;69513;51.990;5.704;2023-06-24T09:27:24;24.2;48.9
80192;SHT31;69513;51.990;5.704;2023-06-24T09:29:53;24.3;48.8
80192;SHT31;69513;51.990;5.704;2023-06-24T09:32:27;24.3;48.4
80192;SHT31;69513;51.990;5.704;2023-06-24T09:34:58;24.3;49.1
80192;SHT31;69513;51.990;5.704;2023-06-24T09:37:30;24.4;47.8
80192;SHT31;69513;51.990;5.704;2023-06-24T09:40:00;24.4;48.1
80192;SHT31;69513;51.990;5.704;2023-06-24T09:42:33;24.4;49.0
80192;SHT31;69513;51.990;5.704;2023-06-24T09:45:12;24.5;47.4
80192;SHT31;69513;51.990;5.704;2023-06-24T09:47:42;24.5;46.9
80192;SHT31;69513;51.990;5.704;2023-06-24T09:50:13;24.5;46.5
80192;SHT31;69513;51.990;5.704;2023-06-24T09:52:47;24.6;46.0
80192;SHT31;69513;51.990;5.704;2023-06-24T09:55:22;24.6;45.0
80192;SHT31;69513;51.990;5.704;2023-06-24T09:58:03;24.7;44.5
80192;SHT31;69513;51.990;5.704;2023-06-24T10:00:34;24.8;46.2
80192;SHT31;69513;51.990;5.704;2023-06-24T10:03:09;24.8;45.4
80192;SHT31;69513;51.990;5.704;2023-06-24T10:05:40;24.9;45.2
80192;SHT31;69513;51.990;5.704;2023-06-24T10:08:14;24.9;46.2
80192;SHT31;69513;51.990;5.704;2023-06-24T10:10:44;25.0;46.4
80192;SHT31;69513;51.990;5.704;2023-06-24T10:13:16;25.1;46.6
80192;SHT31;69513;51.990;5.704;2023-06-24T10:15:49;25.1;46.7
80192;SHT31;69513;51.990;5.704;2023-06-24T10:18:35;25.2;46.0
80192;SHT31;69513;51.990;5.704;2023-06-24T10:21:07;25.3;46.0
80192;SHT31;69513;51.990;5.704;2023-06-24T10:23:54;25.3;47.1
80192;SHT31;69513;51.990;5.704;2023-06-24T10:26:26;25.4;46.8
80192;SHT31;69513;51.990;5.704;2023-06-24T10:29:13;25.5;47.0
80192;SHT31;69513;51.990;5.704;2023-06-24T10:31:55;25.6;46.4
80192;SHT31;69513;51.990;5.704;2023-06-24T10:34:28;25.6;46.6
80192;SHT31;69513;51.990;5.704;2023-06-24T10:37:00;25.7;45.1
80192;SHT31;69513;51.990;5.704;2023-06-24T10:41:22;25.8;44.3
80192;SHT31;69513;51.990;5.704;2023-06-24T10:43:57;25.9;45.1
80192;SHT31;69513;51.990;5.704;2023-06-24T10:46:27;26.0;44.8
80192;SHT31;69513;51.990;5.704;2023-06-24T10:48:56;26.0;45.7
80192;SHT31;69513;51.990;5.704;2023-06-24T10:51:26;26.1;45.4
80192;SHT31;69513;51.990;5.704;2023-06-24T10:53:56;26.2;45.1
80192;SHT31;69513;51.990;5.704;2023-06-24T10:56:33;26.2;44.7
80192;SHT31;69513;51.990;5.704;2023-06-24T10:59:03;26.3;45.0
80192;SHT31;69513;51.990;5.704;2023-06-24T11:01:32;26.4;45.3
80192;SHT31;69513;51.990;5.704;2023-06-24T11:04:16;26.5;46.2
80192;SHT31;69513;51.990;5.704;2023-06-24T11:07:00;26.6;45.5
80192;SHT31;69513;51.990;5.704;2023-06-24T11:09:31;26.7;45.8
80192;SHT31;69513;51.990;5.704;2023-06-24T11:12:02;26.9;45.1
80192;SHT31;69513;51.990;5.704;2023-06-24T11:14:35;27.0;42.7
80192;SHT31;69513;51.990;5.704;2023-06-24T11:17:07;27.1;42.7
80192;SHT31;69513;51.990;5.704;2023-06-24T11:19:40;27.2;43.4
80192;SHT31;69513;51.990;5.704;2023-06-24T11:22:11;27.3;42.8
80192;SHT31;69513;51.990;5.704;2023-06-24T11:24:40;27.5;42.9
80192;SHT31;69513;51.990;5.704;2023-06-24T11:27:10;27.7;44.9
80192;SHT31;69513;51.990;5.704;2023-06-24T11:29:41;28.0;42.4
80192;SHT31;69513;51.990;5.704;2023-06-24T11:32:10;28.1;42.1
80192;SHT31;69513;51.990;5.704;2023-06-24T11:34:40;28.2;40.9
80192;SHT31;69513;51.990;5.704;2023-06-24T11:37:16;28.3;41.4
80192;SHT31;69513;51.990;5.704;2023-06-24T11:40:02;28.4;41.5
80192;SHT31;69513;51.990;5.704;2023-06-24T11:42:38;28.4;42.0
80192;SHT31;69513;51.990;5.704;2023-06-24T11:45:13;28.5;41.4
80192;SHT31;69513;51.990;5.704;2023-06-24T11:47:45;28.6;40.9
80192;SHT31;69513;51.990;5.704;2023-06-24T11:50:15;28.6;40.9
80192;SHT31;69513;51.990;5.704;2023-06-24T11:52:48;28.7;41.2
80192;SHT31;69513;51.990;5.704;2023-06-24T11:55:23;28.8;41.9
80192;SHT31;69513;51.990;5.704;2023-06-24T11:57:57;28.8;41.4
80192;SHT31;69513;51.990;5.704;2023-06-24T12:00:31;28.9;42.1
80192;SHT31;69513;51.990;5.704;2023-06-24T12:03:06;29.0;41.1
80192;SHT31;69513;51.990;5.704;2023-06-24T12:05:40;29.0;39.0
80192;SHT31;69513;51.990;5.704;2023-06-24T12:08:13;29.1;41.0
80192;SHT31;69513;51.990;5.704;2023-06-24T12:10:45;29.2;41.4
80192;SHT31;69513;51.990;5.704;2023-06-24T12:13:15;29.2;39.0
80192;SHT31;69513;51.990;5.704;2023-06-24T12:15:45;29.3;41.5
80192;SHT31;69513;51.990;5.704;2023-06-24T12:18:17;29.4;40.1
80192;SHT31;69513;51.990;5.704;2023-06-24T12:20:46;29.5;40.9
80192;SHT31;69513;51.990;5.704;2023-06-24T12:23:16;29.6;39.6
80192;SHT31;69513;51.990;5.704;2023-06-24T12:25:47;29.7;40.2
80192;SHT31;69513;51.990;5.704;2023-06-24T12:28:17;29.8;40.7
80192;SHT31;69513;51.990;5.704;2023-06-24T12:30:46;29.9;39.6
80192;SHT31;69513;51.990;5.704;2023-06-24T12:33:16;30.0;38.6
80192;SHT31;69513;51.990;5.704;2023-06-24T12:35:46;30.1;40.1
80192;SHT31;69513;51.990;5.704;2023-06-24T12:38:17;30.2;40.1
80192;SHT31;69513;51.990;5.704;2023-06-24T12:40:50;30.3;40.2
80192;SHT31;69513;51.990;5.704;2023-06-24T12:43:22;30.3;39.0
80192;SHT31;69513;51.990;5.704;2023-06-24T12:45:52;30.4;38.3
80192;SHT31;69513;51.990;5.704;2023-06-24T12:48:23;30.5;36.5
80192;SHT31;69513;51.990;5.704;2023-06-24T12:50:54;30.5;37.1
80192;SHT31;69513;51.990;5.704;2023-06-24T12:53:23;30.5;35.1
80192;SHT31;69513;51.990;5.704;2023-06-24T12:55:53;30.5;36.1
80192;SHT31;69513;51.990;5.704;2023-06-24T12:58:24;30.6;37.7
80192;SHT31;69513;51.990;5.704;2023-06-24T13:00:55;30.6;37.9
80192;SHT31;69513;51.990;5.704;2023-06-24T13:03:24;30.6;36.7
80192;SHT31;69513;51.990;5.704;2023-06-24T13:05:54;30.7;35.4
80192;SHT31;69513;51.990;5.704;2023-06-24T13:08:24;30.7;36.0
80192;SHT31;69513;51.990;5.704;2023-06-24T13:10:54;30.7;37.4
80192;SHT31;69513;51.990;5.704;2023-06-24T13:13:24;30.8;38.9
80192;SHT31;69513;51.990;5.704;2023-06-24T13:15:53;30.9;35.9
80192;SHT31;69513;51.990;5.704;2023-06-24T13:18:23;31.0;37.4
80192;SHT31;69513;51.990;5.704;2023-06-24T13:20:55;31.2;36.3
80192;SHT31;69513;51.990;5.704;2023-06-24T13:23:26;31.3;36.9
80192;SHT31;69513;51.990;5.704;2023-06-24T13:25:56;31.5;35.8
80192;SHT31;69513;51.990;5.704;2023-06-24T13:28:26;31.7;34.5
80192;SHT31;69513;51.990;5.704;2023-06-24T13:30:56;31.8;36.3
80192;SHT31;69513;51.990;5.704;2023-06-24T13:33:26;31.9;38.0
80192;SHT31;69513;51.990;5.704;2023-06-24T13:35:56;32.1;35.8
80192;SHT31;69513;51.990;5.704;2023-06-24T13:38:26;32.2;37.2
80192;SHT31;69513;51.990;5.704;2023-06-24T13:40:56;32.2;37.5
80192;SHT31;69513;51.990;5.704;2023-06-24T13:43:28;32.4;35.1
80192;SHT31;69513;51.990;5.704;2023-06-24T13:45:58;32.5;37.2
80192;SHT31;69513;51.990;5.704;2023-06-24T13:48:28;32.7;35.8
80192;SHT31;69513;51.990;5.704;2023-06-24T13:50:57;32.9;34.3
80192;SHT31;69513;51.990;5.704;2023-06-24T13:53:27;33.0;36.6
80192;SHT31;69513;51.990;5.704;2023-06-24T13:55:56;33.2;34.0
80192;SHT31;69513;51.990;5.704;2023-06-24T13:58:26;33.4;34.2
80192;SHT31;69513;51.990;5.704;2023-06-24T14:00:55;33.6;33.8
80192;SHT31;69513;51.990;5.704;2023-06-24T14:03:28;33.7;33.5
80192;SHT31;69513;51.990;5.704;2023-06-24T14:05:57;33.9;33.8
80192;SHT31;69513;51.990;5.704;2023-06-24T14:08:30;34.0;32.6
80192;SHT31;69513;51.990;5.704;2023-06-24T14:11:03;34.2;31.1
80192;SHT31;69513;51.990;5.704;2023-06-24T14:13:33;34.4;32.0
80192;SHT31;69513;51.990;5.704;2023-06-24T14:16:05;34.4;31.0
80192;SHT31;69513;51.990;5.704;2023-06-24T14:18:38;34.4;32.7
80192;SHT31;69513;51.990;5.704;2023-06-24T14:21:10;34.4;33.8
80192;SHT31;69513;51.990;5.704;2023-06-24T14:23:39;34.3;32.0
80192;SHT31;69513;51.990;5.704;2023-06-24T14:26:10;34.2;32.4
80192;SHT31;69513;51.990;5.704;2023-06-24T14:28:40;34.2;31.4
80192;SHT31;69513;51.990;5.704;2023-06-24T14:31:09;34.2;32.1
80192;SHT31;69513;51.990;5.704;2023-06-24T14:33:39;34.3;34.8
80192;SHT31;69513;51.990;5.704;2023-06-24T14:36:08;34.4;34.8
80192;SHT31;69513;51.990;5.704;2023-06-24T14:38:40;34.4;35.0
80192;SHT31;69513;51.990;5.704;2023-06-24T14:41:12;34.4;35.1
80192;SHT31;69513;51.990;5.704;2023-06-24T14:43:41;34.3;34.3
80192;SHT31;69513;51.990;5.704;2023-06-24T14:46:11;34.3;33.2
80192;SHT31;69513;51.990;5.704;2023-06-24T14:48:41;34.2;33.4
80192;SHT31;69513;51.990;5.704;2023-06-24T14:51:10;34.3;32.3
80192;SHT31;69513;51.990;5.704;2023-06-24T14:53:41;34.2;33.4
80192;SHT31;69513;51.990;5.704;2023-06-24T14:56:11;34.3;33.7
80192;SHT31;69513;51.990;5.704;2023-06-24T14:58:41;34.3;32.8
80192;SHT31;69513;51.990;5.704;2023-06-24T15:01:10;34.4;33.3
80192;SHT31;69513;51.990;5.704;2023-06-24T15:03:41;34.4;31.7
80192;SHT31;69513;51.990;5.704;2023-06-24T15:06:10;34.5;31.3
80192;SHT31;69513;51.990;5.704;2023-06-24T15:08:40;34.7;33.7
80192;SHT31;69513;51.990;5.704;2023-06-24T15:11:09;34.9;33.3
80192;SHT31;69513;51.990;5.704;2023-06-24T15:13:39;35.1;34.0
80192;SHT31;69513;51.990;5.704;2023-06-24T15:16:09;35.3;33.0
80192;SHT31;69513;51.990;5.704;2023-06-24T15:18:47;35.4;31.5
80192;SHT31;69513;51.990;5.704;2023-06-24T15:21:18;35.5;31.6
80192;SHT31;69513;51.990;5.704;2023-06-24T15:23:48;35.6;29.7
80192;SHT31;69513;51.990;5.704;2023-06-24T15:26:17;35.6;31.8
80192;SHT31;69513;51.990;5.704;2023-06-24T15:28:47;35.5;29.8
80192;SHT31;69513;51.990;5.704;2023-06-24T15:31:17;35.3;30.4
80192;SHT31;69513;51.990;5.704;2023-06-24T15:33:46;35.1;30.9
80192;SHT31;69513;51.990;5.704;2023-06-24T15:36:16;34.9;30.9
80192;SHT31;69513;51.990;5.704;2023-06-24T15:38:45;34.7;32.2
80192;SHT31;69513;51.990;5.704;2023-06-24T15:41:15;34.5;33.3
80192;SHT31;69513;51.990;5.704;2023-06-24T15:43:44;34.4;33.5
80192;SHT31;69513;51.990;5.704;2023-06-24T15:46:14;34.3;34.1
80192;SHT31;69513;51.990;5.704;2023-06-24T15:48:45;34.1;33.8
80192;SHT31;69513;51.990;5.704;2023-06-24T15:51:14;34.0;35.3
80192;SHT31;69513;51.990;5.704;2023-06-24T15:53:45;33.8;33.2
80192;SHT31;69513;51.990;5.704;2023-06-24T15:56:15;33.7;35.3
80192;SHT31;69513;51.990;5.704;2023-06-24T15:58:44;33.5;35.3
80192;SHT31;69513;51.990;5.704;2023-06-24T16:01:15;33.4;36.4
80192;SHT31;69513;51.990;5.704;2023-06-24T16:03:45;33.3;36.7
80192;SHT31;69513;51.990;5.704;2023-06-24T16:06:15;33.1;35.3
80192;SHT31;69513;51.990;5.704;2023-06-24T16:08:44;33.0;36.2
80192;SHT31;69513;51.990;5.704;2023-06-24T16:11:15;32.9;37.2
80192;SHT31;69513;51.990;5.704;2023-06-24T16:13:44;32.8;36.7
80192;SHT31;69513;51.990;5.704;2023-06-24T16:16:18;32.7;37.6
80192;SHT31;69513;51.990;5.704;2023-06-24T16:18:47;32.6;36.8
80192;SHT31;69513;51.990;5.704;2023-06-24T16:21:17;32.6;37.7
80192;SHT31;69513;51.990;5.704;2023-06-24T16:23:46;32.5;37.1
80192;SHT31;69513;51.990;5.704;2023-06-24T16:26:17;32.4;37.2
80192;SHT31;69513;51.990;5.704;2023-06-24T16:28:46;32.4;36.2
80192;SHT31;69513;51.990;5.704;2023-06-24T16:31:19;32.3;36.1
80192;SHT31;69513;51.990;5.704;2023-06-24T16:33:49;32.3;36.5
80192;SHT31;69513;51.990;5.704;2023-06-24T16:36:19;32.3;37.9
80192;SHT31;69513;51.990;5.704;2023-06-24T16:38:49;32.2;38.2
80192;SHT31;69513;51.990;5.704;2023-06-24T16:41:18;32.2;35.8
80192;SHT31;69513;51.990;5.704;2023-06-24T16:43:49;32.2;36.8
80192;SHT31;69513;51.990;5.704;2023-06-24T16:46:18;32.2;39.3
80192;SHT31;69513;51.990;5.704;2023-06-24T16:48:48;32.2;39.2
80192;SHT31;69513;51.990;5.704;2023-06-24T16:51:18;32.2;38.9
80192;SHT31;69513;51.990;5.704;2023-06-24T16:53:48;32.3;38.2
80192;SHT31;69513;51.990;5.704;2023-06-24T16:56:18;32.4;38.4
80192;SHT31;69513;51.990;5.704;2023-06-24T16:58:48;32.4;38.5
80192;SHT31;69513;51.990;5.704;2023-06-24T17:01:19;32.4;39.6
80192;SHT31;69513;51.990;5.704;2023-06-24T17:03:51;32.4;40.0
80192;SHT31;69513;51.990;5.704;2023-06-24T17:06:22;32.4;40.9
80192;SHT31;69513;51.990;5.704;2023-06-24T17:08:52;32.4;40.4
80192;SHT31;69513;51.990;5.704;2023-06-24T17:11:24;32.4;40.9
80192;SHT31;69513;51.990;5.704;2023-06-24T17:13:54;32.4;40.8
80192;SHT31;69513;51.990;5.704;2023-06-24T17:16:24;32.3;40.4
80192;SHT31;69513;51.990;5.704;2023-06-24T17:18:54;32.2;40.9
80192;SHT31;69513;51.990;5.704;2023-06-24T17:21:23;32.1;41.6
80192;SHT31;69513;51.990;5.704;2023-06-24T17:23:53;31.9;41.5
80192;SHT31;69513;51.990;5.704;2023-06-24T17:26:22;31.8;41.9
80192;SHT31;69513;51.990;5.704;2023-06-24T17:28:53;31.6;42.2
80192;SHT31;69513;51.990;5.704;2023-06-24T17:31:23;31.5;42.7
80192;SHT31;69513;51.990;5.704;2023-06-24T17:33:52;31.4;42.7
80192;SHT31;69513;51.990;5.704;2023-06-24T17:36:22;31.2;42.3
80192;SHT31;69513;51.990;5.704;2023-06-24T17:38:51;31.0;43.0
80192;SHT31;69513;51.990;5.704;2023-06-24T17:41:21;30.9;42.9
80192;SHT31;69513;51.990;5.704;2023-06-24T17:43:52;30.8;43.3
80192;SHT31;69513;51.990;5.704;2023-06-24T17:46:23;30.6;44.0
80192;SHT31;69513;51.990;5.704;2023-06-24T17:48:54;30.5;44.2
80192;SHT31;69513;51.990;5.704;2023-06-24T17:51:24;30.4;44.8
80192;SHT31;69513;51.990;5.704;2023-06-24T17:53:53;30.3;45.2
80192;SHT31;69513;51.990;5.704;2023-06-24T17:56:23;30.2;45.2
80192;SHT31;69513;51.990;5.704;2023-06-24T17:58:53;30.1;45.7
80192;SHT31;69513;51.990;5.704;2023-06-24T18:01:23;30.0;45.5
80192;SHT31;69513;51.990;5.704;2023-06-24T18:03:56;29.9;45.8
80192;SHT31;69513;51.990;5.704;2023-06-24T18:06:28;29.8;46.1
80192;SHT31;69513;51.990;5.704;2023-06-24T18:08:58;29.8;45.9
80192;SHT31;69513;51.990;5.704;2023-06-24T18:11:28;29.7;46.1
80192;SHT31;69513;51.990;5.704;2023-06-24T18:14:00;29.6;46.1
80192;SHT31;69513;51.990;5.704;2023-06-24T18:16:30;29.5;46.2
80192;SHT31;69513;51.990;5.704;2023-06-24T18:19:00;29.5;46.4
80192;SHT31;69513;51.990;5.704;2023-06-24T18:21:30;29.4;47.1
80192;SHT31;69513;51.990;5.704;2023-06-24T18:23:59;29.3;47.4
80192;SHT31;69513;51.990;5.704;2023-06-24T18:26:30;29.3;47.8
80192;SHT31;69513;51.990;5.704;2023-06-24T18:28:59;29.2;47.8
80192;SHT31;69513;51.990;5.704;2023-06-24T18:31:29;29.2;47.6
80192;SHT31;69513;51.990;5.704;2023-06-24T18:34:00;29.1;48.0
80192;SHT31;69513;51.990;5.704;2023-06-24T18:36:30;29.1;48.2
80192;SHT31;69513;51.990;5.704;2023-06-24T18:38:59;29.0;48.4
80192;SHT31;69513;51.990;5.704;2023-06-24T18:41:29;29.0;48.2
80192;SHT31;69513;51.990;5.704;2023-06-24T18:43:59;28.9;49.0
80192;SHT31;69513;51.990;5.704;2023-06-24T18:46:32;28.9;49.3
80192;SHT31;69513;51.990;5.704;2023-06-24T18:49:03;28.9;49.7
80192;SHT31;69513;51.990;5.704;2023-06-24T18:51:32;28.8;49.7
80192;SHT31;69513;51.990;5.704;2023-06-24T18:54:02;28.8;49.6
80192;SHT31;69513;51.990;5.704;2023-06-24T18:56:32;28.7;49.5
80192;SHT31;69513;51.990;5.704;2023-06-24T18:59:02;28.7;50.3
80192;SHT31;69513;51.990;5.704;2023-06-24T19:01:31;28.6;50.7
80192;SHT31;69513;51.990;5.704;2023-06-24T19:04:01;28.6;50.8
80192;SHT31;69513;51.990;5.704;2023-06-24T19:06:31;28.6;51.3
80192;SHT31;69513;51.990;5.704;2023-06-24T19:09:01;28.6;51.3
80192;SHT31;69513;51.990;5.704;2023-06-24T19:11:30;28.5;51.5
80192;SHT31;69513;51.990;5.704;2023-06-24T19:14:00;28.5;51.4
80192;SHT31;69513;51.990;5.704;2023-06-24T19:16:31;28.5;51.4
80192;SHT31;69513;51.990;5.704;2023-06-24T19:19:01;28.5;51.5
80192;SHT31;69513;51.990;5.704;2023-06-24T19:21:33;28.4;51.8
80192;SHT31;69513;51.990;5.704;2023-06-24T19:24:04;28.4;51.3
80192;SHT31;69513;51.990;5.704;2023-06-24T19:26:35;28.4;51.3
80192;SHT31;69513;51.990;5.704;2023-06-24T19:29:06;28.4;51.2
80192;SHT31;69513;51.990;5.704;2023-06-24T19:31:36;28.3;51.4
80192;SHT31;69513;51.990;5.704;2023-06-24T19:34:05;28.3;51.2
80192;SHT31;69513;51.990;5.704;2023-06-24T19:36:37;28.2;51.3
80192;SHT31;69513;51.990;5.704;2023-06-24T19:39:08;28.2;50.9
80192;SHT31;69513;51.990;5.704;2023-06-24T19:41:38;28.2;51.2
80192;SHT31;69513;51.990;5.704;2023-06-24T19:44:07;28.1;51.3
80192;SHT31;69513;51.990;5.704;2023-06-24T19:46:37;28.1;50.8
80192;SHT31;69513;51.990;5.704;2023-06-24T19:49:06;28.0;51.0
80192;SHT31;69513;51.990;5.704;2023-06-24T19:51:36;28.0;51.2
80192;SHT31;69513;51.990;5.704;2023-06-24T19:54:05;27.9;51.3
80192;SHT31;69513;51.990;5.704;2023-06-24T19:56:36;27.8;51.5
80192;SHT31;69513;51.990;5.704;2023-06-24T19:59:05;27.8;51.3
80192;SHT31;69513;51.990;5.704;2023-06-24T20:01:35;27.7;51.8
80192;SHT31;69513;51.990;5.704;2023-06-24T20:04:05;27.6;51.6
80192;SHT31;69513;51.990;5.704;2023-06-24T20:06:35;27.6;51.7
80192;SHT31;69513;51.990;5.704;2023-06-24T20:09:04;27.5;51.9
80192;SHT31;69513;51.990;5.704;2023-06-24T20:11:35;27.5;52.5
80192;SHT31;69513;51.990;5.704;2023-06-24T20:14:05;27.4;52.6
80192;SHT31;69513;51.990;5.704;2023-06-24T20:16:35;27.3;52.4
80192;SHT31;69513;51.990;5.704;2023-06-24T20:19:04;27.3;52.4
80192;SHT31;69513;51.990;5.704;2023-06-24T20:21:35;27.2;52.2
80192;SHT31;69513;51.990;5.704;2023-06-24T20:24:06;27.2;52.6
80192;SHT31;69513;51.990;5.704;2023-06-24T20:26:37;27.1;53.2
80192;SHT31;69513;51.990;5.704;2023-06-24T20:29:08;27.1;53.2
80192;SHT31;69513;51.990;5.704;2023-06-24T20:31:41;27.0;53.6
80192;SHT31;69513;51.990;5.704;2023-06-24T20:34:10;27.0;53.8
80192;SHT31;69513;51.990;5.704;2023-06-24T20:36:40;26.9;54.0
80192;SHT31;69513;51.990;5.704;2023-06-24T20:39:12;26.9;53.9
80192;SHT31;69513;51.990;5.704;2023-06-24T20:41:41;26.8;53.9
80192;SHT31;69513;51.990;5.704;2023-06-24T20:44:11;26.8;54.1
80192;SHT31;69513;51.990;5.704;2023-06-24T20:46:41;26.7;54.1
80192;SHT31;69513;51.990;5.704;2023-06-24T20:49:14;26.6;54.3
80192;SHT31;69513;51.990;5.704;2023-06-24T20:51:47;26.6;54.0
80192;SHT31;69513;51.990;5.704;2023-06-24T20:54:18;26.5;54.1
80192;SHT31;69513;51.990;5.704;2023-06-24T20:56:48;26.5;54.6
80192;SHT31;69513;51.990;5.704;2023-06-24T20:59:18;26.4;54.5